sensor_id;sensor_type;location;lat;lon;timestamp;temperature;humidity
32769;DHT22;23049;54.304;8.826;2023-04-25T00:00:25;7.10;99.90
32769;DHT22;23049;54.304;8.826;2023-04-25T00:02:51;7.10;99.90
32769;DHT22;23049;54.304;8.826;2023-04-25T00:05:17;7.10;99.90
32769;DHT22;23049;54.304;8.826;2023-04-25T00:07:42;7.00;99.90
32769;DHT22;23049;54.304;8.826;2023-04-25T00:10:08;7.10;99.90
32769;DHT22;23049;54.304;8.826;2023-04-25T00:12:34;7.00;99.90
32769;DHT22;23049;54.304;8.826;2023-04-25T00:14:59;7.10;99.90
32769;DHT22;23049;54.304;8.826;2023-04-25T00:17:25;7.10;99.90
32769;DHT22;23049;54.304;8.826;2023-04-25T00:19:52;7.10;99.90
32769;DHT22;23049;54.304;8.826;2023-04-25T00:22:17;7.10;99.90
32769;DHT22;23049;54.304;8.826;2023-04-25T00:24:43;7.00;99.90
32769;DHT22;23049;54.304;8.826;2023-04-25T00:27:08;7.00;99.90
32769;DHT22;23049;54.304;8.826;2023-04-25T00:29:34;6.90;99.90
32769;DHT22;23049;54.304;8.826;2023-04-25T00:32:00;6.70;99.90
32769;DHT22;23049;54.304;8.826;2023-04-25T00:34:25;6.70;99.90
32769;DHT22;23049;54.304;8.826;2023-04-25T00:36:51;6.60;99.90
32769;DHT22;23049;54.304;8.826;2023-04-25T00:39:16;6.60;99.90
32769;DHT22;23049;54.304;8.826;2023-04-25T00:41:42;6.70;99.90
32769;DHT22;23049;54.304;8.826;2023-04-25T00:44:08;6.70;99.90
32769;DHT22;23049;54.304;8.826;2023-04-25T00:46:36;6.70;99.90
32769;DHT22;23049;54.304;8.826;2023-04-25T00:49:02;6.70;99.90
32769;DHT22;23049;54.304;8.826;2023-04-25T00:51:27;6.70;99.90
32769;DHT22;23049;54.304;8.826;2023-04-25T00:53:53;6.70;99.90
32769;DHT22;23049;54.304;8.826;2023-04-25T00:56:18;6.70;99.90
32769;DHT22;23049;54.304;8.826;2023-04-25T00:58:45;6.70;99.90
32769;DHT22;23049;54.304;8.826;2023-04-25T01:01:11;6.70;99.90
32769;DHT22;23049;54.304;8.826;2023-04-25T01:03:37;6.70;99.90
32769;DHT22;23049;54.304;8.826;2023-04-25T01:06:09;6.70;99.90
32769;DHT22;23049;54.304;8.826;2023-04-25T01:08:35;6.60;99.90
32769;DHT22;23049;54.304;8.826;2023-04-25T01:11:01;6.60;99.90
32769;DHT22;23049;54.304;8.826;2023-04-25T01:13:26;6.60;99.90
32769;DHT22;23049;54.304;8.826;2023-04-25T01:15:52;6.70;99.90
32769;DHT22;23049;54.304;8.826;2023-04-25T01:18:18;6.80;99.90
32769;DHT22;23049;54.304;8.826;2023-04-25T01:20:44;6.70;99.90
32769;DHT22;23049;54.304;8.826;2023-04-25T01:23:10;6.70;99.90
32769;DHT22;23049;54.304;8.826;2023-04-25T01:25:36;6.80;99.90
32769;DHT22;23049;54.304;8.826;2023-04-25T01:28:02;6.90;99.90
32769;DHT22;23049;54.304;8.826;2023-04-25T01:30:27;6.90;99.90
32769;DHT22;23049;54.304;8.826;2023-04-25T01:32:55;6.80;99.90
32769;DHT22;23049;54.304;8.826;2023-04-25T01:35:21;6.90;99.90
32769;DHT22;23049;54.304;8.826;2023-04-25T01:37:49;6.90;99.90
32769;DHT22;23049;54.304;8.826;2023-04-25T01:40:15;6.90;99.90
32769;DHT22;23049;54.304;8.826;2023-04-25T01:42:41;7.00;99.90
32769;DHT22;23049;54.304;8.826;2023-04-25T01:45:07;7.00;99.90
32769;DHT22;23049;54.304;8.826;2023-04-25T01:47:33;7.10;99.90
32769;DHT22;23049;54.304;8.826;2023-04-25T01:50:00;7.00;99.90
32769;DHT22;23049;54.304;8.826;2023-04-25T01:52:26;7.00;99.90
32769;DHT22;23049;54.304;8.826;2023-04-25T01:54:51;7.10;99.90
32769;DHT22;23049;54.304;8.826;2023-04-25T01:57:17;7.10;99.90
32769;DHT22;23049;54.304;8.826;2023-04-25T01:59:43;7.00;99.90
32769;DHT22;23049;54.304;8.826;2023-04-25T02:02:09;6.90;99.90
32769;DHT22;23049;54.304;8.826;2023-04-25T02:04:35;7.00;99.90
32769;DHT22;23049;54.304;8.826;2023-04-25T02:07:00;7.00;99.90
32769;DHT22;23049;54.304;8.826;2023-04-25T02:09:26;7.10;99.90
32769;DHT22;23049;54.304;8.826;2023-04-25T02:11:52;7.00;99.90
32769;DHT22;23049;54.304;8.826;2023-04-25T02:14:17;7.00;99.90
32769;DHT22;23049;54.304;8.826;2023-04-25T02:16:43;7.00;99.90
32769;DHT22;23049;54.304;8.826;2023-04-25T02:19:11;7.00;99.90
32769;DHT22;23049;54.304;8.826;2023-04-25T02:21:37;7.00;99.90
32769;DHT22;23049;54.304;8.826;2023-04-25T02:24:03;7.00;99.90
32769;DHT22;23049;54.304;8.826;2023-04-25T02:26:28;7.00;99.90
32769;DHT22;23049;54.304;8.826;2023-04-25T02:28:56;7.10;99.90
32769;DHT22;23049;54.304;8.826;2023-04-25T02:31:21;7.00;99.90
32769;DHT22;23049;54.304;8.826;2023-04-25T02:33:47;7.10;99.90
32769;DHT22;23049;54.304;8.826;2023-04-25T02:36:12;7.10;99.90
32769;DHT22;23049;54.304;8.826;2023-04-25T02:38:38;7.00;99.90
32769;DHT22;23049;54.304;8.826;2023-04-25T02:41:04;7.00;99.90
32769;DHT22;23049;54.304;8.826;2023-04-25T02:43:29;7.00;99.90
32769;DHT22;23049;54.304;8.826;2023-04-25T02:45:55;7.00;99.90
32769;DHT22;23049;54.304;8.826;2023-04-25T02:48:20;6.90;99.90
32769;DHT22;23049;54.304;8.826;2023-04-25T02:50:46;6.80;99.90
32769;DHT22;23049;54.304;8.826;2023-04-25T02:53:11;6.80;99.90
32769;DHT22;23049;54.304;8.826;2023-04-25T02:55:37;6.90;99.90
32769;DHT22;23049;54.304;8.826;2023-04-25T02:58:02;6.80;99.90
32769;DHT22;23049;54.304;8.826;2023-04-25T03:00:28;6.90;99.90
32769;DHT22;23049;54.304;8.826;2023-04-25T03:02:53;6.90;99.90
32769;DHT22;23049;54.304;8.826;2023-04-25T03:05:19;6.90;99.90
32769;DHT22;23049;54.304;8.826;2023-04-25T03:07:44;6.90;99.90
32769;DHT22;23049;54.304;8.826;2023-04-25T03:10:10;6.80;99.90
32769;DHT22;23049;54.304;8.826;2023-04-25T03:12:36;6.90;99.90
32769;DHT22;23049;54.304;8.826;2023-04-25T03:15:02;6.90;99.90
32769;DHT22;23049;54.304;8.826;2023-04-25T03:17:27;6.90;99.90
32769;DHT22;23049;54.304;8.826;2023-04-25T03:19:53;6.90;99.90
32769;DHT22;23049;54.304;8.826;2023-04-25T03:22:18;6.90;99.90
32769;DHT22;23049;54.304;8.826;2023-04-25T03:24:44;6.90;99.90
32769;DHT22;23049;54.304;8.826;2023-04-25T03:27:10;7.00;99.90
32769;DHT22;23049;54.304;8.826;2023-04-25T03:29:35;7.00;99.90
32769;DHT22;23049;54.304;8.826;2023-04-25T03:32:01;7.00;99.90
32769;DHT22;23049;54.304;8.826;2023-04-25T03:34:26;7.00;99.90
32769;DHT22;23049;54.304;8.826;2023-04-25T03:36:52;6.80;99.90
32769;DHT22;23049;54.304;8.826;2023-04-25T03:39:17;6.70;99.90
32769;DHT22;23049;54.304;8.826;2023-04-25T03:41:43;6.60;99.90
32769;DHT22;23049;54.304;8.826;2023-04-25T03:44:08;6.60;99.90
32769;DHT22;23049;54.304;8.826;2023-04-25T03:46:33;6.60;99.90
32769;DHT22;23049;54.304;8.826;2023-04-25T03:48:59;6.60;99.90
32769;DHT22;23049;54.304;8.826;2023-04-25T03:51:25;6.70;99.90
32769;DHT22;23049;54.304;8.826;2023-04-25T03:53:51;6.70;99.90
32769;DHT22;23049;54.304;8.826;2023-04-25T03:56:16;6.70;99.90
32769;DHT22;23049;54.304;8.826;2023-04-25T03:58:42;6.80;99.90
32769;DHT22;23049;54.304;8.826;2023-04-25T04:01:07;6.80;99.90
32769;DHT22;23049;54.304;8.826;2023-04-25T04:03:33;6.70;99.90
32769;DHT22;23049;54.304;8.826;2023-04-25T04:06:00;6.70;99.90
32769;DHT22;23049;54.304;8.826;2023-04-25T04:08:25;6.70;99.90
32769;DHT22;23049;54.304;8.826;2023-04-25T04:10:51;6.70;99.90
32769;DHT22;23049;54.304;8.826;2023-04-25T04:13:16;6.70;99.90
32769;DHT22;23049;54.304;8.826;2023-04-25T04:15:42;6.70;99.90
32769;DHT22;23049;54.304;8.826;2023-04-25T04:18:07;6.70;99.90
32769;DHT22;23049;54.304;8.826;2023-04-25T04:20:33;6.80;99.90
32769;DHT22;23049;54.304;8.826;2023-04-25T04:22:58;6.90;99.90
32769;DHT22;23049;54.304;8.826;2023-04-25T04:25:24;6.90;99.90
32769;DHT22;23049;54.304;8.826;2023-04-25T04:27:50;6.90;99.90
32769;DHT22;23049;54.304;8.826;2023-04-25T04:30:21;6.90;99.90
32769;DHT22;23049;54.304;8.826;2023-04-25T04:32:46;6.90;99.90
32769;DHT22;23049;54.304;8.826;2023-04-25T04:35:13;6.90;99.90
32769;DHT22;23049;54.304;8.826;2023-04-25T04:37:39;7.00;99.90
32769;DHT22;23049;54.304;8.826;2023-04-25T04:40:05;7.00;99.90
32769;DHT22;23049;54.304;8.826;2023-04-25T04:42:31;6.70;99.90
32769;DHT22;23049;54.304;8.826;2023-04-25T04:44:57;6.40;99.90
32769;DHT22;23049;54.304;8.826;2023-04-25T04:47:24;6.20;99.90
32769;DHT22;23049;54.304;8.826;2023-04-25T04:49:50;6.30;99.90
32769;DHT22;23049;54.304;8.826;2023-04-25T04:52:16;6.50;99.90
32769;DHT22;23049;54.304;8.826;2023-04-25T04:54:42;6.70;99.90
32769;DHT22;23049;54.304;8.826;2023-04-25T04:57:07;6.80;99.90
32769;DHT22;23049;54.304;8.826;2023-04-25T04:59:32;6.90;99.90
32769;DHT22;23049;54.304;8.826;2023-04-25T05:01:58;6.90;99.90
32769;DHT22;23049;54.304;8.826;2023-04-25T05:04:23;6.90;99.90
32769;DHT22;23049;54.304;8.826;2023-04-25T05:06:49;7.00;99.90
32769;DHT22;23049;54.304;8.826;2023-04-25T05:09:15;7.00;99.90
32769;DHT22;23049;54.304;8.826;2023-04-25T05:11:40;7.00;99.90
32769;DHT22;23049;54.304;8.826;2023-04-25T05:14:06;7.10;99.90
32769;DHT22;23049;54.304;8.826;2023-04-25T05:16:31;7.00;99.90
32769;DHT22;23049;54.304;8.826;2023-04-25T05:18:57;7.10;99.90
32769;DHT22;23049;54.304;8.826;2023-04-25T05:21:22;7.10;99.90
32769;DHT22;23049;54.304;8.826;2023-04-25T05:23:48;7.20;99.90
32769;DHT22;23049;54.304;8.826;2023-04-25T05:26:13;7.10;99.90
32769;DHT22;23049;54.304;8.826;2023-04-25T05:28:39;7.20;99.90
32769;DHT22;23049;54.304;8.826;2023-04-25T05:31:05;7.10;99.90
32769;DHT22;23049;54.304;8.826;2023-04-25T05:33:31;7.20;99.90
32769;DHT22;23049;54.304;8.826;2023-04-25T05:35:56;7.30;99.90
32769;DHT22;23049;54.304;8.826;2023-04-25T05:38:22;7.30;99.90
32769;DHT22;23049;54.304;8.826;2023-04-25T05:40:47;7.40;99.90
32769;DHT22;23049;54.304;8.826;2023-04-25T05:43:13;7.30;99.90
32769;DHT22;23049;54.304;8.826;2023-04-25T05:45:38;7.20;99.90
32769;DHT22;23049;54.304;8.826;2023-04-25T05:48:04;7.00;99.90
32769;DHT22;23049;54.304;8.826;2023-04-25T05:50:29;6.90;99.90
32769;DHT22;23049;54.304;8.826;2023-04-25T05:52:55;7.00;99.90
32769;DHT22;23049;54.304;8.826;2023-04-25T05:55:20;7.00;99.90
32769;DHT22;23049;54.304;8.826;2023-04-25T05:57:46;7.10;99.90
32769;DHT22;23049;54.304;8.826;2023-04-25T06:00:12;7.10;99.90
32769;DHT22;23049;54.304;8.826;2023-04-25T06:02:38;7.10;99.90
32769;DHT22;23049;54.304;8.826;2023-04-25T06:05:03;7.20;99.90
32769;DHT22;23049;54.304;8.826;2023-04-25T06:07:29;7.20;99.90
32769;DHT22;23049;54.304;8.826;2023-04-25T06:09:55;7.50;99.90
32769;DHT22;23049;54.304;8.826;2023-04-25T06:12:21;7.70;99.90
32769;DHT22;23049;54.304;8.826;2023-04-25T06:14:46;7.80;99.90
32769;DHT22;23049;54.304;8.826;2023-04-25T06:17:12;7.90;99.90
32769;DHT22;23049;54.304;8.826;2023-04-25T06:19:37;8.00;99.90
32769;DHT22;23049;54.304;8.826;2023-04-25T06:22:03;7.80;99.90
32769;DHT22;23049;54.304;8.826;2023-04-25T06:24:28;7.70;99.90
32769;DHT22;23049;54.304;8.826;2023-04-25T06:26:54;7.70;99.90
32769;DHT22;23049;54.304;8.826;2023-04-25T06:29:20;7.70;99.90
32769;DHT22;23049;54.304;8.826;2023-04-25T06:31:45;7.70;99.90
32769;DHT22;23049;54.304;8.826;2023-04-25T06:34:11;7.70;99.90
32769;DHT22;23049;54.304;8.826;2023-04-25T06:36:36;7.70;99.90
32769;DHT22;23049;54.304;8.826;2023-04-25T06:39:02;7.70;99.90
32769;DHT22;23049;54.304;8.826;2023-04-25T06:41:28;7.70;99.90
32769;DHT22;23049;54.304;8.826;2023-04-25T06:43:53;7.70;99.90
32769;DHT22;23049;54.304;8.826;2023-04-25T06:46:19;7.70;99.90
32769;DHT22;23049;54.304;8.826;2023-04-25T06:48:44;7.80;99.90
32769;DHT22;23049;54.304;8.826;2023-04-25T06:51:10;7.90;99.90
32769;DHT22;23049;54.304;8.826;2023-04-25T06:53:35;8.00;99.90
32769;DHT22;23049;54.304;8.826;2023-04-25T06:56:01;8.10;99.90
32769;DHT22;23049;54.304;8.826;2023-04-25T06:58:27;8.30;99.90
32769;DHT22;23049;54.304;8.826;2023-04-25T07:00:52;8.50;99.90
32769;DHT22;23049;54.304;8.826;2023-04-25T07:03:18;8.60;99.90
32769;DHT22;23049;54.304;8.826;2023-04-25T07:05:43;8.70;99.90
32769;DHT22;23049;54.304;8.826;2023-04-25T07:08:10;8.70;99.90
32769;DHT22;23049;54.304;8.826;2023-04-25T07:10:36;8.60;99.90
32769;DHT22;23049;54.304;8.826;2023-04-25T07:13:02;8.20;99.90
32769;DHT22;23049;54.304;8.826;2023-04-25T07:15:27;8.20;99.90
32769;DHT22;23049;54.304;8.826;2023-04-25T07:17:52;8.30;99.90
32769;DHT22;23049;54.304;8.826;2023-04-25T07:20:18;8.20;99.90
32769;DHT22;23049;54.304;8.826;2023-04-25T07:22:43;8.20;99.90
32769;DHT22;23049;54.304;8.826;2023-04-25T07:25:09;8.30;99.90
32769;DHT22;23049;54.304;8.826;2023-04-25T07:27:35;8.50;99.90
32769;DHT22;23049;54.304;8.826;2023-04-25T07:30:00;8.70;99.90
32769;DHT22;23049;54.304;8.826;2023-04-25T07:32:26;8.90;99.90
32769;DHT22;23049;54.304;8.826;2023-04-25T07:34:52;8.90;99.90
32769;DHT22;23049;54.304;8.826;2023-04-25T07:37:17;9.00;99.90
32769;DHT22;23049;54.304;8.826;2023-04-25T07:39:44;9.00;99.90
32769;DHT22;23049;54.304;8.826;2023-04-25T07:42:11;8.90;99.90
32769;DHT22;23049;54.304;8.826;2023-04-25T07:44:37;8.50;99.90
32769;DHT22;23049;54.304;8.826;2023-04-25T07:47:04;8.70;99.90
32769;DHT22;23049;54.304;8.826;2023-04-25T07:49:32;9.00;99.90
32769;DHT22;23049;54.304;8.826;2023-04-25T07:51:58;9.30;99.90
32769;DHT22;23049;54.304;8.826;2023-04-25T07:54:23;9.40;99.90
32769;DHT22;23049;54.304;8.826;2023-04-25T07:56:50;9.20;99.90
32769;DHT22;23049;54.304;8.826;2023-04-25T07:59:15;9.10;99.90
32769;DHT22;23049;54.304;8.826;2023-04-25T08:01:41;9.20;99.90
32769;DHT22;23049;54.304;8.826;2023-04-25T08:04:06;9.10;99.90
32769;DHT22;23049;54.304;8.826;2023-04-25T08:06:32;9.00;99.90
32769;DHT22;23049;54.304;8.826;2023-04-25T08:08:58;8.90;99.90
32769;DHT22;23049;54.304;8.826;2023-04-25T08:11:23;8.90;99.90
32769;DHT22;23049;54.304;8.826;2023-04-25T08:13:49;8.70;99.90
32769;DHT22;23049;54.304;8.826;2023-04-25T08:16:14;8.80;99.90
32769;DHT22;23049;54.304;8.826;2023-04-25T08:18:41;8.70;99.90
32769;DHT22;23049;54.304;8.826;2023-04-25T08:21:07;8.90;99.90
32769;DHT22;23049;54.304;8.826;2023-04-25T08:23:36;9.10;99.90
32769;DHT22;23049;54.304;8.826;2023-04-25T08:26:02;9.10;99.90
32769;DHT22;23049;54.304;8.826;2023-04-25T08:28:28;9.00;99.90
32769;DHT22;23049;54.304;8.826;2023-04-25T08:30:53;8.80;99.90
32769;DHT22;23049;54.304;8.826;2023-04-25T08:33:19;8.80;99.90
32769;DHT22;23049;54.304;8.826;2023-04-25T08:35:45;8.90;99.90
32769;DHT22;23049;54.304;8.826;2023-04-25T08:38:10;9.30;99.90
32769;DHT22;23049;54.304;8.826;2023-04-25T08:40:37;9.50;99.90
32769;DHT22;23049;54.304;8.826;2023-04-25T08:43:03;9.50;99.90
32769;DHT22;23049;54.304;8.826;2023-04-25T08:45:30;9.70;99.90
32769;DHT22;23049;54.304;8.826;2023-04-25T08:47:56;10.00;99.90
32769;DHT22;23049;54.304;8.826;2023-04-25T08:50:22;10.20;99.90
32769;DHT22;23049;54.304;8.826;2023-04-25T08:52:48;10.20;99.90
32769;DHT22;23049;54.304;8.826;2023-04-25T08:55:17;10.10;99.90
32769;DHT22;23049;54.304;8.826;2023-04-25T08:57:43;9.80;99.90
32769;DHT22;23049;54.304;8.826;2023-04-25T09:00:10;9.60;99.90
32769;DHT22;23049;54.304;8.826;2023-04-25T09:02:37;9.40;99.90
32769;DHT22;23049;54.304;8.826;2023-04-25T09:05:02;9.30;99.90
32769;DHT22;23049;54.304;8.826;2023-04-25T09:07:29;9.20;99.90
32769;DHT22;23049;54.304;8.826;2023-04-25T09:09:55;9.20;99.90
32769;DHT22;23049;54.304;8.826;2023-04-25T09:12:21;9.30;99.90
32769;DHT22;23049;54.304;8.826;2023-04-25T09:15:06;9.40;99.90
32769;DHT22;23049;54.304;8.826;2023-04-25T09:17:32;9.70;99.90
32769;DHT22;23049;54.304;8.826;2023-04-25T09:20:10;10.00;99.90
32769;DHT22;23049;54.304;8.826;2023-04-25T09:22:36;10.00;99.90
32769;DHT22;23049;54.304;8.826;2023-04-25T09:25:02;10.00;99.90
32769;DHT22;23049;54.304;8.826;2023-04-25T09:27:28;10.00;99.90
32769;DHT22;23049;54.304;8.826;2023-04-25T09:29:57;10.20;99.90
32769;DHT22;23049;54.304;8.826;2023-04-25T09:32:25;10.30;99.90
32769;DHT22;23049;54.304;8.826;2023-04-25T09:34:54;10.40;99.90
32769;DHT22;23049;54.304;8.826;2023-04-25T09:37:20;10.40;99.90
32769;DHT22;23049;54.304;8.826;2023-04-25T09:39:52;10.70;99.90
32769;DHT22;23049;54.304;8.826;2023-04-25T09:42:18;10.60;99.90
32769;DHT22;23049;54.304;8.826;2023-04-25T09:44:47;9.40;99.90
32769;DHT22;23049;54.304;8.826;2023-04-25T09:47:13;8.50;99.90
32769;DHT22;23049;54.304;8.826;2023-04-25T09:49:40;8.00;99.90
32769;DHT22;23049;54.304;8.826;2023-04-25T09:52:08;8.10;99.90
32769;DHT22;23049;54.304;8.826;2023-04-25T09:54:35;8.30;99.90
32769;DHT22;23049;54.304;8.826;2023-04-25T09:57:03;8.30;99.90
32769;DHT22;23049;54.304;8.826;2023-04-25T09:59:30;8.80;99.90
32769;DHT22;23049;54.304;8.826;2023-04-25T10:01:56;9.20;99.90
32769;DHT22;23049;54.304;8.826;2023-04-25T10:04:24;9.50;99.90
32769;DHT22;23049;54.304;8.826;2023-04-25T10:06:49;9.70;99.90
32769;DHT22;23049;54.304;8.826;2023-04-25T10:09:15;9.70;99.90
32769;DHT22;23049;54.304;8.826;2023-04-25T10:11:42;9.80;99.90
32769;DHT22;23049;54.304;8.826;2023-04-25T10:14:09;9.70;99.90
32769;DHT22;23049;54.304;8.826;2023-04-25T10:16:35;10.00;99.90
32769;DHT22;23049;54.304;8.826;2023-04-25T10:19:01;10.10;99.90
32769;DHT22;23049;54.304;8.826;2023-04-25T10:21:28;9.80;99.90
32769;DHT22;23049;54.304;8.826;2023-04-25T10:23:54;9.70;99.90
32769;DHT22;23049;54.304;8.826;2023-04-25T10:26:19;9.80;99.90
32769;DHT22;23049;54.304;8.826;2023-04-25T10:28:55;9.90;99.90
32769;DHT22;23049;54.304;8.826;2023-04-25T10:31:20;10.30;99.90
32769;DHT22;23049;54.304;8.826;2023-04-25T10:33:46;10.80;99.90
32769;DHT22;23049;54.304;8.826;2023-04-25T10:36:12;11.10;99.90
32769;DHT22;23049;54.304;8.826;2023-04-25T10:38:38;9.80;99.90
32769;DHT22;23049;54.304;8.826;2023-04-25T10:41:04;8.70;99.90
32769;DHT22;23049;54.304;8.826;2023-04-25T10:45:56;8.30;99.90
32769;DHT22;23049;54.304;8.826;2023-04-25T10:48:25;8.50;99.90
32769;DHT22;23049;54.304;8.826;2023-04-25T10:51:06;8.50;99.90
32769;DHT22;23049;54.304;8.826;2023-04-25T10:53:33;8.90;99.90
32769;DHT22;23049;54.304;8.826;2023-04-25T10:55:58;9.40;99.90
32769;DHT22;23049;54.304;8.826;2023-04-25T10:58:24;9.60;99.90
32769;DHT22;23049;54.304;8.826;2023-04-25T11:00:50;9.90;99.90
32769;DHT22;23049;54.304;8.826;2023-04-25T11:03:16;10.00;99.90
32769;DHT22;23049;54.304;8.826;2023-04-25T11:05:41;10.20;99.90
32769;DHT22;23049;54.304;8.826;2023-04-25T11:08:10;10.20;99.90
32769;DHT22;23049;54.304;8.826;2023-04-25T11:10:36;10.60;99.90
32769;DHT22;23049;54.304;8.826;2023-04-25T11:13:02;10.30;99.90
32769;DHT22;23049;54.304;8.826;2023-04-25T11:15:27;10.10;99.90
32769;DHT22;23049;54.304;8.826;2023-04-25T11:17:53;10.00;99.90
32769;DHT22;23049;54.304;8.826;2023-04-25T11:20:19;10.00;99.90
32769;DHT22;23049;54.304;8.826;2023-04-25T11:22:45;9.80;99.90
32769;DHT22;23049;54.304;8.826;2023-04-25T11:25:11;10.20;99.90
32769;DHT22;23049;54.304;8.826;2023-04-25T11:27:38;10.40;99.90
32769;DHT22;23049;54.304;8.826;2023-04-25T11:30:13;10.80;99.90
32769;DHT22;23049;54.304;8.826;2023-04-25T11:32:39;10.60;99.90
32769;DHT22;23049;54.304;8.826;2023-04-25T11:35:05;10.60;99.90
32769;DHT22;23049;54.304;8.826;2023-04-25T11:37:31;10.40;99.90
32769;DHT22;23049;54.304;8.826;2023-04-25T11:39:56;10.00;99.90
32769;DHT22;23049;54.304;8.826;2023-04-25T11:42:22;10.30;99.90
32769;DHT22;23049;54.304;8.826;2023-04-25T11:44:47;10.80;99.90
32769;DHT22;23049;54.304;8.826;2023-04-25T11:47:13;10.90;99.90
32769;DHT22;23049;54.304;8.826;2023-04-25T11:49:38;11.10;99.90
32769;DHT22;23049;54.304;8.826;2023-04-25T11:52:05;10.70;99.90
32769;DHT22;23049;54.304;8.826;2023-04-25T11:54:34;10.40;99.90
32769;DHT22;23049;54.304;8.826;2023-04-25T11:57:00;10.30;99.90
32769;DHT22;23049;54.304;8.826;2023-04-25T11:59:26;10.40;99.90
32769;DHT22;23049;54.304;8.826;2023-04-25T12:01:52;10.50;99.90
32769;DHT22;23049;54.304;8.826;2023-04-25T12:04:22;10.50;99.90
32769;DHT22;23049;54.304;8.826;2023-04-25T12:06:49;11.00;99.90
32769;DHT22;23049;54.304;8.826;2023-04-25T12:09:15;11.10;99.90
32769;DHT22;23049;54.304;8.826;2023-04-25T12:11:43;11.50;99.90
32769;DHT22;23049;54.304;8.826;2023-04-25T12:14:10;11.40;99.90
32769;DHT22;23049;54.304;8.826;2023-04-25T12:16:42;11.70;99.90
32769;DHT22;23049;54.304;8.826;2023-04-25T12:19:08;11.90;99.90
32769;DHT22;23049;54.304;8.826;2023-04-25T12:21:34;11.40;99.90
32769;DHT22;23049;54.304;8.826;2023-04-25T12:24:15;9.70;99.90
32769;DHT22;23049;54.304;8.826;2023-04-25T12:29:19;9.60;99.90
32769;DHT22;23049;54.304;8.826;2023-04-25T12:31:45;10.00;99.90
32769;DHT22;23049;54.304;8.826;2023-04-25T12:34:10;10.40;99.90
32769;DHT22;23049;54.304;8.826;2023-04-25T12:36:36;10.70;99.90
32769;DHT22;23049;54.304;8.826;2023-04-25T12:39:02;10.60;99.90
32769;DHT22;23049;54.304;8.826;2023-04-25T12:41:29;10.40;99.90
32769;DHT22;23049;54.304;8.826;2023-04-25T12:43:55;9.70;99.90
32769;DHT22;23049;54.304;8.826;2023-04-25T12:46:20;9.20;99.90
32769;DHT22;23049;54.304;8.826;2023-04-25T12:48:46;8.90;99.90
32769;DHT22;23049;54.304;8.826;2023-04-25T12:51:11;8.80;99.90
32769;DHT22;23049;54.304;8.826;2023-04-25T12:53:37;8.60;99.90
32769;DHT22;23049;54.304;8.826;2023-04-25T12:56:04;8.00;99.90
32769;DHT22;23049;54.304;8.826;2023-04-25T12:58:29;8.10;99.90
32769;DHT22;23049;54.304;8.826;2023-04-25T13:00:55;8.60;99.90
32769;DHT22;23049;54.304;8.826;2023-04-25T13:03:21;9.10;99.90
32769;DHT22;23049;54.304;8.826;2023-04-25T13:05:47;9.40;99.90
32769;DHT22;23049;54.304;8.826;2023-04-25T13:08:12;9.80;99.90
32769;DHT22;23049;54.304;8.826;2023-04-25T13:10:38;10.10;99.90
32769;DHT22;23049;54.304;8.826;2023-04-25T13:13:04;10.40;99.90
32769;DHT22;23049;54.304;8.826;2023-04-25T13:15:29;10.20;99.90
32769;DHT22;23049;54.304;8.826;2023-04-25T13:17:55;10.30;99.90
32769;DHT22;23049;54.304;8.826;2023-04-25T13:20:21;10.40;99.90
32769;DHT22;23049;54.304;8.826;2023-04-25T13:22:47;10.50;99.90
32769;DHT22;23049;54.304;8.826;2023-04-25T13:25:13;10.30;99.90
32769;DHT22;23049;54.304;8.826;2023-04-25T13:27:38;10.30;99.90
32769;DHT22;23049;54.304;8.826;2023-04-25T13:30:06;10.00;99.90
32769;DHT22;23049;54.304;8.826;2023-04-25T13:32:35;9.90;99.90
32769;DHT22;23049;54.304;8.826;2023-04-25T13:35:03;10.00;99.90
32769;DHT22;23049;54.304;8.826;2023-04-25T13:37:29;10.20;99.90
32769;DHT22;23049;54.304;8.826;2023-04-25T13:39:58;10.40;99.90
32769;DHT22;23049;54.304;8.826;2023-04-25T13:42:24;10.40;99.90
32769;DHT22;23049;54.304;8.826;2023-04-25T13:44:49;10.60;99.90
32769;DHT22;23049;54.304;8.826;2023-04-25T13:47:15;10.50;99.90
32769;DHT22;23049;54.304;8.826;2023-04-25T13:49:41;10.80;99.90
32769;DHT22;23049;54.304;8.826;2023-04-25T13:52:06;11.10;99.90
32769;DHT22;23049;54.304;8.826;2023-04-25T13:54:33;11.50;99.90
32769;DHT22;23049;54.304;8.826;2023-04-25T13:56:58;11.50;99.90
32769;DHT22;23049;54.304;8.826;2023-04-25T13:59:24;11.40;99.90
32769;DHT22;23049;54.304;8.826;2023-04-25T14:01:51;11.30;99.90
32769;DHT22;23049;54.304;8.826;2023-04-25T14:04:16;10.90;99.90
32769;DHT22;23049;54.304;8.826;2023-04-25T14:06:42;10.70;99.90
32769;DHT22;23049;54.304;8.826;2023-04-25T14:09:08;10.40;99.90
32769;DHT22;23049;54.304;8.826;2023-04-25T14:11:38;9.90;99.90
32769;DHT22;23049;54.304;8.826;2023-04-25T14:14:04;9.80;99.90
32769;DHT22;23049;54.304;8.826;2023-04-25T14:16:29;9.90;99.90
32769;DHT22;23049;54.304;8.826;2023-04-25T14:18:57;10.00;99.90
32769;DHT22;23049;54.304;8.826;2023-04-25T14:21:23;10.60;99.90
32769;DHT22;23049;54.304;8.826;2023-04-25T14:23:48;10.80;99.90
32769;DHT22;23049;54.304;8.826;2023-04-25T14:26:14;10.40;99.90
32769;DHT22;23049;54.304;8.826;2023-04-25T14:28:39;10.10;99.90
32769;DHT22;23049;54.304;8.826;2023-04-25T14:31:05;8.70;99.90
32769;DHT22;23049;54.304;8.826;2023-04-25T14:33:31;8.30;99.90
32769;DHT22;23049;54.304;8.826;2023-04-25T14:35:56;8.20;99.90
32769;DHT22;23049;54.304;8.826;2023-04-25T14:38:22;8.20;99.90
32769;DHT22;23049;54.304;8.826;2023-04-25T14:40:49;8.50;99.90
32769;DHT22;23049;54.304;8.826;2023-04-25T14:43:14;9.10;99.90
32769;DHT22;23049;54.304;8.826;2023-04-25T14:45:40;9.30;99.90
32769;DHT22;23049;54.304;8.826;2023-04-25T14:48:05;9.20;99.90
32769;DHT22;23049;54.304;8.826;2023-04-25T14:50:32;9.60;99.90
32769;DHT22;23049;54.304;8.826;2023-04-25T14:52:57;9.20;99.90
32769;DHT22;23049;54.304;8.826;2023-04-25T14:55:26;9.10;99.90
32769;DHT22;23049;54.304;8.826;2023-04-25T14:57:52;9.50;99.90
32769;DHT22;23049;54.304;8.826;2023-04-25T15:00:18;9.70;99.90
32769;DHT22;23049;54.304;8.826;2023-04-25T15:02:45;9.90;99.90
32769;DHT22;23049;54.304;8.826;2023-04-25T15:05:12;10.00;99.90
32769;DHT22;23049;54.304;8.826;2023-04-25T15:07:38;9.70;99.90
32769;DHT22;23049;54.304;8.826;2023-04-25T15:10:08;9.70;99.90
32769;DHT22;23049;54.304;8.826;2023-04-25T15:12:39;9.50;99.90
32769;DHT22;23049;54.304;8.826;2023-04-25T15:15:04;9.70;99.90
32769;DHT22;23049;54.304;8.826;2023-04-25T15:17:31;9.00;99.90
32769;DHT22;23049;54.304;8.826;2023-04-25T15:19:57;8.50;99.90
32769;DHT22;23049;54.304;8.826;2023-04-25T15:22:22;8.40;99.90
32769;DHT22;23049;54.304;8.826;2023-04-25T15:24:47;8.70;99.90
32769;DHT22;23049;54.304;8.826;2023-04-25T15:27:13;8.80;99.90
32769;DHT22;23049;54.304;8.826;2023-04-25T15:29:39;8.80;99.90
32769;DHT22;23049;54.304;8.826;2023-04-25T15:32:05;8.80;99.90
32769;DHT22;23049;54.304;8.826;2023-04-25T15:34:31;9.20;99.90
32769;DHT22;23049;54.304;8.826;2023-04-25T15:36:56;9.40;99.90
32769;DHT22;23049;54.304;8.826;2023-04-25T15:39:22;9.80;99.90